Argo, Illinois
Current Conditions -  °F | °C
As of 1:53 PM on Saturday 25 Oct 2014 (Local Time) from KMDW Reporting Station
Few Clouds Few Clouds  
Wind Chill: 73°   Ceiling: Unl
Heat Index: 73°   Visibility: 10mi
Dew Point: 36°   Wind: 14mph
Humidity: 26%   Direction: 290°WNW
Pressure: 29.92"   Gusts: 22mph
Location:  41.7806°N, 87.8151°W
Report Text: KMDW 251853Z 29012G19KT 10SM FEW250 23/02 A2992 RMK AO2 SLP126 T02280022
Loading
Personal Weather Stations






























Interactive Weather Map
Tropical Storm Tracking
New forecast layout! Learn more

10-Day Weather Forecast

Advertisements
Track Severe Weather on mobile